Time;durP1;ratioP1;P1;durP2;ratioP2;P2;SDS_P1;SDS_P2;PMS_P1;PMS_P2;Temp;Humidity;BMP_temperature;BMP_pressure;BME280_temperature;BME280_humidity;BME280_pressure;Samples;Min_cycle;Max_cycle;Signal;HPM_P1;HPM_P2
2020/12/29 00:01:50;;;;;;;12.93;9.23;;;;;;;9.15;52.83;99352.98;1706785;83;21174;-66
2020/12/29 00:04:25;;;;;;;12.15;9.43;;;;;;;9.14;52.86;99342.89;1704537;83;21622;-66
2020/12/29 00:06:53;;;;;;;11.48;8.95;;;;;;;9.15;52.86;99352.98;1776093;80;21285;-66
2020/12/29 00:09:23;;;;;;;11.33;8.78;;;;;;;9.14;52.86;99338.92;1769972;80;21202;-66
2020/12/29 00:11:50;;;;;;;11.80;9.23;;;;;;;9.14;52.86;99345.55;1775059;80;21618;-65
2020/12/29 00:14:18;;;;;;;13.35;9.70;;;;;;;9.14;52.87;99341.56;1778557;80;21163;-65
2020/12/29 00:16:45;;;;;;;12.50;9.48;;;;;;;9.15;52.88;99345.03;1777263;80;21091;-65
2020/12/29 00:19:20;;;;;;;12.05;9.25;;;;;;;9.14;52.88;99354.82;1786593;80;21190;-65
2020/12/29 00:21:48;;;;;;;;;;;;;;;9.14;52.88;99356.14;1788023;80;21182;-64
2020/12/29 00:24:15;;;;;;;11.88;8.98;;;;;;;9.15;52.90;99338.41;1754355;80;20214;-64
2020/12/29 00:26:44;;;;;;;10.93;8.15;;;;;;;9.08;53.01;99330.33;1785981;80;21572;-66
2020/12/29 00:29:12;;;;;;;12.80;9.03;;;;;;;9.09;53.03;99314.73;1787611;80;21125;-66
2020/12/29 00:31:39;;;;;;;12.07;9.00;;;;;;;9.10;53.03;99323.50;1770133;80;21203;-64
2020/12/29 00:34:06;;;;;;;13.43;9.43;;;;;;;9.11;53.03;99339.75;1773867;80;21621;-65
2020/12/29 00:36:34;;;;;;;12.95;8.80;;;;;;;9.10;53.03;99346.88;1778983;80;21594;-64
2020/12/29 00:39:01;;;;;;;14.00;9.78;;;;;;;9.10;53.02;99338.93;1786299;80;21127;-65
2020/12/29 00:41:30;;;;;;;13.22;9.70;;;;;;;9.10;53.02;99342.05;1789215;80;21163;-65
2020/12/29 00:43:58;;;;;;;13.93;9.43;;;;;;;9.11;53.01;99345.87;1782741;80;21397;-65
2020/12/29 00:46:25;;;;;;;13.30;10.32;;;;;;;9.11;53.01;99325.99;1786079;80;21154;-65
2020/12/29 00:48:54;;;;;;;14.07;9.75;;;;;;;9.11;53.02;99341.89;1778998;80;21137;-66
2020/12/29 00:51:22;;;;;;;13.15;9.70;;;;;;;9.12;53.02;99332.14;1785390;80;21172;-66
2020/12/29 00:53:52;;;;;;;11.95;9.20;;;;;;;9.12;53.02;99352.84;1786020;80;21156;-65
2020/12/29 00:56:19;;;;;;;13.20;9.90;;;;;;;9.13;53.03;99343.05;1779031;80;21367;-65
2020/12/29 00:58:47;;;;;;;12.58;9.18;;;;;;;9.12;53.01;99354.16;1763016;80;21188;-64
2020/12/29 01:01:15;;;;;;;12.23;9.18;;;;;;;9.12;53.02;99340.91;1779032;80;21129;-66
2020/12/29 01:03:45;;;;;;;13.85;10.53;;;;;;;9.13;53.00;99324.00;1764123;80;21131;-65
2020/12/29 01:06:13;;;;;;;12.40;9.18;;;;;;;9.13;53.02;99325.83;1778332;80;21114;-65
2020/12/29 01:08:41;;;;;;;13.58;10.15;;;;;;;9.13;53.02;99322.67;1780791;80;21374;-65
2020/12/29 01:11:08;;;;;;;13.88;10.25;;;;;;;9.13;53.00;99322.67;1783361;80;21186;-65
2020/12/29 01:13:42;;;;;;;13.90;9.60;;;;;;;9.12;53.02;99318.39;1779564;80;21134;-65
2020/12/29 01:16:09;;;;;;;13.18;9.15;;;;;;;9.13;53.02;99315.23;1781801;80;21084;-65
2020/12/29 01:18:39;;;;;;;16.10;10.98;;;;;;;9.14;53.03;99323.52;1766812;80;21153;-66
2020/12/29 01:21:10;;;;;;;15.48;10.55;;;;;;;9.13;53.04;99327.97;1771929;80;21201;-65
2020/12/29 01:23:38;;;;;;;14.73;10.75;;;;;;;9.13;53.04;99321.35;1777666;80;21170;-65
2020/12/29 01:26:07;;;;;;;14.25;10.08;;;;;;;9.12;53.03;99307.79;1781708;80;21167;-64
2020/12/29 01:28:38;;;;;;;13.08;9.90;;;;;;;9.13;53.05;99320.53;1770155;80;21147;-65
2020/12/29 01:31:05;;;;;;;14.73;11.20;;;;;;;9.13;53.05;99315.23;1771920;80;21155;-66
2020/12/29 01:33:32;;;;;;;15.35;10.55;;;;;;;9.13;53.05;99313.91;1769206;80;21848;-64
2020/12/29 01:35:59;;;;;;;13.95;9.98;;;;;;;9.13;53.07;99318.70;1781702;80;21904;-65
2020/12/29 01:38:26;;;;;;;13.22;10.10;;;;;;;9.13;53.07;99321.35;1765315;79;21126;-65
2020/12/29 01:40:58;;;;;;;14.25;10.03;;;;;;;9.14;53.07;99328.83;1772356;80;21096;-65
2020/12/29 01:43:30;;;;;;;14.65;10.43;;;;;;;9.13;53.07;99318.70;1778810;79;21162;-65
2020/12/29 01:45:57;;;;;;;12.90;9.70;;;;;;;9.14;53.07;99305.80;1764104;80;22330;-64
2020/12/29 01:48:26;;;;;;;13.95;10.60;;;;;;;9.15;53.06;99298.66;1778555;79;21096;-65
2020/12/29 01:50:53;;;;;;;13.20;10.10;;;;;;;9.13;53.07;99274.97;1781716;79;21099;-65
2020/12/29 01:53:20;;;;;;;14.10;11.00;;;;;;;9.15;53.05;99270.84;1769270;80;21201;-65
2020/12/29 01:55:48;;;;;;;13.88;10.32;;;;;;;9.15;53.08;99266.35;1775826;79;21649;-65
2020/12/29 01:58:15;;;;;;;14.18;9.98;;;;;;;9.15;53.07;99265.03;1758703;80;21619;-64
2020/12/29 02:00:42;;;;;;;13.95;10.70;;;;;;;9.15;53.06;99269.00;1777288;79;21212;-66
2020/12/29 02:03:10;;;;;;;14.78;10.75;;;;;;;9.15;53.08;99272.16;1773910;80;21127;-65
2020/12/29 02:05:38;;;;;;;12.98;10.10;;;;;;;9.14;53.07;99255.44;1769170;80;21153;-67
2020/12/29 02:08:06;;;;;;;13.20;9.65;;;;;;;9.15;53.07;99267.67;1781816;79;21690;-63
2020/12/29 02:10:34;;;;;;;15.10;10.50;;;;;;;9.15;53.09;99254.94;1759799;80;21347;-65
2020/12/29 02:13:01;;;;;;;14.83;11.35;;;;;;;9.16;53.10;99248.66;1783729;80;21158;-65
2020/12/29 02:15:29;;;;;;;14.33;10.45;;;;;;;9.16;53.10;99249.47;1785939;78;21192;-65
2020/12/29 02:17:57;;;;;;;14.28;10.53;;;;;;;9.16;53.09;99258.74;1782586;80;21636;-66
2020/12/29 02:20:24;;;;;;;14.83;11.00;;;;;;;9.15;53.09;99251.78;1785845;80;21155;-65
2020/12/29 02:22:51;;;;;;;14.15;10.98;;;;;;;9.16;53.09;99246.81;1785514;78;21413;-65
2020/12/29 02:25:18;;;;;;;15.25;10.55;;;;;;;9.16;53.08;99242.84;1789283;80;21111;-66
2020/12/29 02:27:48;;;;;;;15.68;10.43;;;;;;;9.16;53.10;99249.47;1781968;80;21135;-66
2020/12/29 02:30:18;;;;;;;15.28;11.30;;;;;;;9.16;53.10;99265.88;1785370;78;21557;-65
2020/12/29 02:32:46;;;;;;;15.13;10.70;;;;;;;9.17;53.09;99264.86;1786564;78;21603;-66
2020/12/29 02:35:16;;;;;;;14.98;10.20;;;;;;;9.16;53.09;99253.95;1785085;80;22229;-65
2020/12/29 02:37:44;;;;;;;12.88;10.35;;;;;;;9.16;53.12;99261.39;1751198;80;21139;-65
2020/12/29 02:40:12;;;;;;;15.35;11.15;;;;;;;9.17;53.11;99264.86;1782582;80;21111;-65
2020/12/29 02:42:39;;;;;;;15.23;10.72;;;;;;;9.17;53.13;99263.53;1782332;78;21161;-66
2020/12/29 02:45:07;;;;;;;15.28;10.72;;;;;;;9.15;53.13;99275.63;1781785;80;21132;-64
2020/12/29 02:47:34;;;;;;;13.78;10.68;;;;;;;9.16;53.13;99257.42;1783026;78;21169;-64
2020/12/29 02:50:06;;;;;;;13.95;10.20;;;;;;;9.17;53.13;99259.56;1784935;80;21185;-65
2020/12/29 02:52:34;;;;;;;14.63;10.70;;;;;;;9.16;53.12;99236.22;1784549;80;21103;-65
2020/12/29 02:55:03;;;;;;;14.38;10.05;;;;;;;9.16;53.13;99248.14;1780181;80;21160;-65
2020/12/29 02:57:30;;;;;;;14.93;11.10;;;;;;;9.16;53.15;99244.17;1779042;80;21157;-65
2020/12/29 02:59:58;;;;;;;13.72;10.40;;;;;;;9.16;53.15;99222.97;1780076;80;21451;-65
2020/12/29 03:02:25;;;;;;;16.32;10.13;;;;;;;9.16;53.16;99230.09;1785146;80;21113;-65
2020/12/29 03:04:53;;;;;;;13.98;10.18;;;;;;;9.15;53.14;99219.98;1786309;78;21111;-65
2020/12/29 03:07:20;;;;;;;12.28;9.38;;;;;;;9.16;53.14;99230.92;1787427;78;21127;-65
2020/12/29 03:09:49;;;;;;;14.83;10.48;;;;;;;9.16;53.14;99217.67;1782636;80;21144;-64
2020/12/29 03:12:16;;;;;;;14.73;10.68;;;;;;;9.16;53.16;99225.62;1779079;80;21584;-66
2020/12/29 03:14:44;;;;;;;12.95;10.13;;;;;;;9.16;53.16;99223.48;1784775;79;21162;-65
2020/12/29 03:17:11;;;;;;;12.68;9.73;;;;;;;9.16;53.17;99225.62;1787530;80;21153;-65
2020/12/29 03:19:38;;;;;;;14.00;9.95;;;;;;;9.17;53.17;99231.73;1784058;78;21186;-65
2020/12/29 03:22:05;;;;;;;12.55;10.05;;;;;;;9.17;53.17;99231.73;1785784;80;21634;-65
2020/12/29 03:24:34;;;;;;;12.90;9.88;;;;;;;9.15;53.16;99225.28;1786873;80;22302;-65
2020/12/29 03:27:02;;;;;;;12.40;9.80;;;;;;;9.16;53.20;99225.62;1784560;80;21611;-64
2020/12/29 03:29:29;;;;;;;12.60;9.73;;;;;;;9.17;53.19;99211.86;1782027;80;21103;-65
2020/12/29 03:31:56;;;;;;;10.80;8.68;;;;;;;9.17;53.17;99216.66;1788630;80;21151;-66
2020/12/29 03:34:27;;;;;;;12.78;10.65;;;;;;;9.16;53.17;99224.30;1778911;80;21125;-67
2020/12/29 03:36:55;;;;;;;11.65;9.30;;;;;;;9.12;53.18;99207.09;1708170;83;21310;-65
2020/12/29 03:39:22;;;;;;;14.83;10.40;;;;;;;9.17;53.16;99208.70;1728521;81;21199;-66
2020/12/29 03:41:49;;;;;;;12.78;10.20;;;;;;;9.18;53.18;99187.03;1708932;83;21128;-65
2020/12/29 03:44:16;;;;;;;13.85;10.08;;;;;;;9.18;53.18;99205.07;1789327;80;21111;-65
2020/12/29 03:46:44;;;;;;;13.32;9.40;;;;;;;9.18;53.16;99197.62;1782031;78;21147;-64
2020/12/29 03:49:11;;;;;;;13.20;9.78;;;;;;;9.19;53.19;99199.27;1789321;80;21788;-64
2020/12/29 03:51:38;;;;;;;12.00;10.18;;;;;;;9.18;53.18;99206.91;1780308;78;21608;-65
2020/12/29 03:54:05;;;;;;;11.88;9.25;;;;;;;9.18;53.20;99225.45;1783983;80;21079;-65
2020/12/29 03:56:33;;;;;;;14.58;10.85;;;;;;;9.17;53.19;99224.61;1787187;78;21095;-65
2020/12/29 03:59:01;;;;;;;12.05;9.58;;;;;;;9.18;53.20;99233.41;1779124;80;21109;-65
2020/12/29 04:01:28;;;;;;;14.07;10.58;;;;;;;9.18;53.20;99228.10;1779040;78;21195;-65
2020/12/29 04:03:55;;;;;;;13.20;9.33;;;;;;;9.18;53.22;99212.20;1779006;80;21208;-64
2020/12/29 04:06:23;;;;;;;13.20;9.60;;;;;;;9.17;53.23;99207.38;1785581;80;21556;-66
2020/12/29 04:08:50;;;;;;;11.18;8.85;;;;;;;9.17;53.23;99211.35;1786760;78;21586;-64
2020/12/29 04:11:17;;;;;;;12.40;9.68;;;;;;;9.17;53.22;99194.13;1784754;80;21111;-65
2020/12/29 04:13:46;;;;;;;11.40;9.18;;;;;;;9.18;53.21;99198.44;1777988;78;21635;-65
2020/12/29 04:16:13;;;;;;;13.05;10.10;;;;;;;9.17;53.23;99180.06;1779293;80;21757;-65
2020/12/29 04:18:41;;;;;;;13.35;10.30;;;;;;;9.17;53.24;99166.30;1776327;80;21119;-64
2020/12/29 04:21:11;;;;;;;14.05;9.50;;;;;;;9.17;53.24;99179.55;1761063;80;21131;-65
2020/12/29 04:23:38;;;;;;;12.65;9.68;;;;;;;9.17;53.26;99173.44;1762572;80;21632;-65
2020/12/29 04:26:14;;;;;;;12.80;9.48;;;;;;;9.17;53.26;99172.11;1754918;80;21481;-65
2020/12/29 04:28:41;;;;;;;13.05;9.53;;;;;;;9.17;53.27;99176.09;1779296;80;21150;-65
2020/12/29 04:31:11;;;;;;;12.75;10.05;;;;;;;9.17;53.28;99176.91;1764016;80;21175;-65
2020/12/29 04:33:40;;;;;;;13.13;10.00;;;;;;;9.16;53.27;99193.81;1764008;80;21619;-65
2020/12/29 04:36:07;;;;;;;13.28;10.20;;;;;;;9.16;53.25;99171.29;1779371;80;22098;-64
2020/12/29 04:38:37;;;;;;;12.35;9.53;;;;;;;9.17;53.28;99169.45;1779352;80;21265;-65
2020/12/29 04:41:04;;;;;;;12.00;9.08;;;;;;;9.16;53.29;99185.05;1779293;80;21590;-66
2020/12/29 04:43:33;;;;;;;12.40;10.65;;;;;;;9.17;53.29;99188.83;1769871;80;21196;-65
2020/12/29 04:46:02;;;;;;;12.65;9.08;;;;;;;9.17;53.29;99195.45;1736665;82;21210;-65
2020/12/29 04:48:30;;;;;;;13.20;10.03;;;;;;;9.17;53.28;99180.06;1746552;82;21170;-65
2020/12/29 04:51:02;;;;;;;11.22;8.75;;;;;;;9.16;53.30;99173.94;1762971;80;21378;-68
2020/12/29 04:53:32;;;;;;;12.47;9.53;;;;;;;9.18;53.27;99173.27;1772362;80;21132;-65
2020/12/29 04:56:07;;;;;;;10.25;8.45;;;;;;;9.17;53.28;99172.11;1765806;80;21139;-65
2020/12/29 04:58:36;;;;;;;12.70;10.20;;;;;;;9.17;53.31;99159.67;1759150;80;21108;-66
2020/12/29 05:01:09;;;;;;;14.63;9.28;;;;;;;9.16;53.30;99134.19;1779282;80;21369;-65
2020/12/29 05:03:44;;;;;;;10.98;9.20;;;;;;;9.16;53.31;99143.47;1759176;80;21721;-66
2020/12/29 05:06:13;;;;;;;11.57;9.10;;;;;;;9.16;53.32;99154.06;1762147;80;21205;-65
2020/12/29 05:08:48;;;;;;;11.38;8.78;;;;;;;9.16;53.33;99164.67;1755690;80;21580;-66
2020/12/29 05:11:17;;;;;;;13.95;9.85;;;;;;;9.14;53.36;99175.94;1779341;80;21167;-66
2020/12/29 05:13:46;;;;;;;11.18;8.45;;;;;;;9.15;53.36;99188.69;1775235;80;21309;-65
2020/12/29 05:16:14;;;;;;;12.33;9.48;;;;;;;9.14;53.39;99190.52;1758388;80;21186;-65
2020/12/29 05:18:42;;;;;;;11.40;8.60;;;;;;;9.14;53.39;99198.47;1772799;80;21141;-66
2020/12/29 05:21:10;;;;;;;10.75;8.68;;;;;;;9.14;53.39;99197.14;1776129;80;21186;-66
2020/12/29 05:23:37;;;;;;;11.53;9.38;;;;;;;9.15;53.39;99194.80;1746340;80;21606;-66
2020/12/29 05:26:04;;;;;;;12.37;9.23;;;;;;;9.14;53.39;99180.42;1734057;82;21180;-66
2020/12/29 05:28:32;;;;;;;11.70;9.18;;;;;;;9.15;53.40;99182.06;1773820;80;21355;-65
2020/12/29 05:31:02;;;;;;;11.70;9.38;;;;;;;9.15;53.39;99202.75;1784253;80;21607;-66
2020/12/29 05:33:29;;;;;;;11.53;8.35;;;;;;;9.16;53.39;99185.05;1789502;80;21123;-66
2020/12/29 05:35:58;;;;;;;11.20;9.68;;;;;;;9.15;53.38;99172.27;1789544;80;21611;-65
2020/12/29 05:38:25;;;;;;;11.43;8.50;;;;;;;9.15;53.39;99186.84;1788469;78;21530;-66
2020/12/29 05:40:53;;;;;;;13.38;9.50;;;;;;;9.15;53.38;99176.76;1781185;80;21202;-66
2020/12/29 05:43:31;;;;;;;12.82;9.15;;;;;;;9.15;53.40;99194.80;1788820;80;21139;-65
2020/12/29 05:46:06;;;;;;;12.25;9.58;;;;;;;9.16;53.38;99197.79;1781262;80;21601;-66
2020/12/29 05:48:33;;;;;;;10.00;8.88;;;;;;;9.16;53.40;99196.98;1753266;80;21124;-65
2020/12/29 05:51:01;;;;;;;12.33;9.30;;;;;;;9.16;53.42;99202.27;1778320;80;21119;-66
2020/12/29 05:53:29;;;;;;;10.73;8.40;;;;;;;9.15;53.40;99185.53;1773428;78;21552;-66
2020/12/29 05:55:57;;;;;;;10.88;8.55;;;;;;;9.16;53.39;99193.00;1771556;80;21146;-66
2020/12/29 05:58:24;;;;;;;11.70;8.60;;;;;;;9.16;53.40;99191.17;1789405;80;21119;-67
2020/12/29 06:00:51;;;;;;;12.58;9.75;;;;;;;9.15;53.38;99186.84;1755861;80;21163;-67
2020/12/29 06:03:19;;;;;;;12.00;9.40;;;;;;;9.16;53.40;99184.55;1737088;80;21151;-65
2020/12/29 06:05:47;;;;;;;12.93;9.53;;;;;;;9.16;53.39;99182.40;1789472;80;21277;-66
2020/12/29 06:08:15;;;;;;;12.28;9.40;;;;;;;9.17;53.39;99193.31;1780378;80;21139;-66
2020/12/29 06:10:48;;;;;;;11.85;9.60;;;;;;;9.16;53.39;99177.91;1758933;80;21202;-66
2020/12/29 06:13:16;;;;;;;12.00;9.83;;;;;;;9.16;53.40;99181.89;1785662;80;21163;-66
2020/12/29 06:15:43;;;;;;;11.50;9.60;;;;;;;9.16;53.43;99175.77;1772333;80;21112;-65
2020/12/29 06:18:10;;;;;;;13.25;10.13;;;;;;;9.15;53.44;99165.65;1766504;80;21199;-66
2020/12/29 06:20:53;;;;;;;12.40;9.50;;;;;;;9.16;53.43;99154.57;1773177;80;21176;-65
2020/12/29 06:23:20;;;;;;;12.20;9.33;;;;;;;9.16;53.44;99159.36;1749595;80;21188;-66
2020/12/29 06:25:47;;;;;;;13.60;10.48;;;;;;;9.16;53.45;99155.90;1751456;80;21125;-65
2020/12/29 06:28:18;;;;;;;15.13;10.45;;;;;;;9.14;53.47;99164.02;1779248;80;21139;-65
2020/12/29 06:30:45;;;;;;;11.22;9.15;;;;;;;9.15;53.46;99160.86;1768046;80;21416;-67
2020/12/29 06:33:17;;;;;;;11.83;9.98;;;;;;;9.15;53.47;99172.27;1759261;80;21103;-64
2020/12/29 06:35:45;;;;;;;12.90;10.03;;;;;;;9.15;53.48;99152.91;1761558;80;21577;-67
2020/12/29 06:38:21;;;;;;;12.95;10.08;;;;;;;9.14;53.48;99150.77;1750322;80;22037;-66
2020/12/29 06:40:48;;;;;;;12.07;9.83;;;;;;;9.14;53.51;99165.34;1767252;80;21600;-65
2020/12/29 06:43:17;;;;;;;12.65;9.98;;;;;;;9.15;53.48;99169.63;1777383;80;21436;-65
2020/12/29 06:45:44;;;;;;;12.05;9.60;;;;;;;9.15;53.51;99174.11;1779306;80;21167;-65
2020/12/29 06:48:20;;;;;;;13.00;10.08;;;;;;;9.15;53.50;99170.13;1758184;80;21171;-66
2020/12/29 06:50:47;;;;;;;13.00;10.20;;;;;;;9.15;53.51;99176.25;1763540;80;21600;-66
2020/12/29 06:53:17;;;;;;;12.45;9.85;;;;;;;9.15;53.50;99178.08;1754045;80;21136;-65
2020/12/29 06:55:48;;;;;;;13.50;10.10;;;;;;;9.15;53.50;99180.73;1779375;80;21369;-65
2020/12/29 06:58:33;;;;;;;12.15;9.60;;;;;;;9.16;53.50;99182.40;1776712;80;21152;-66
2020/12/29 07:01:24;;;;;;;13.93;10.78;;;;;;;9.15;53.51;99170.13;1750976;80;21181;-66
2020/12/29 07:04:07;;;;;;;10.93;8.58;;;;;;;9.14;53.53;99174.61;1769806;80;21129;-65
2020/12/29 07:06:36;;;;;;;14.70;10.48;;;;;;;9.13;53.54;99164.19;1738894;82;21174;-65
2020/12/29 07:09:26;;;;;;;12.30;9.50;;;;;;;9.12;53.57;99166.52;1747706;81;21435;-65
2020/12/29 07:12:02;;;;;;;12.73;9.38;;;;;;;9.12;53.58;99171.31;1747586;82;21186;-66
2020/12/29 07:14:32;;;;;;;11.93;9.63;;;;;;;9.10;53.59;99181.27;1743799;81;21171;-64
2020/12/29 07:17:00;;;;;;;13.93;9.45;;;;;;;9.11;53.61;99166.18;1751980;81;21126;-65
2020/12/29 07:19:30;;;;;;;11.55;9.18;;;;;;;9.10;53.63;99162.71;1752009;81;21156;-66
2020/12/29 07:21:58;;;;;;;11.20;9.05;;;;;;;9.11;53.63;99150.28;1750876;80;22313;-65
2020/12/29 07:24:28;;;;;;;12.05;9.73;;;;;;;9.11;53.63;99141.83;1725707;81;21267;-64
2020/12/29 07:26:57;;;;;;;11.18;8.95;;;;;;;9.13;53.62;99149.61;1713936;81;21190;-66
2020/12/29 07:29:24;;;;;;;11.80;9.55;;;;;;;9.12;53.62;99150.11;1678476;81;21139;-69
2020/12/29 07:31:51;;;;;;;10.08;8.38;;;;;;;9.13;53.63;99135.03;1789292;80;21127;-65
2020/12/29 07:34:19;;;;;;;10.78;8.75;;;;;;;9.13;53.63;99137.69;1788936;78;21436;-66
2020/12/29 07:36:48;;;;;;;11.38;9.28;;;;;;;9.14;53.62;99144.14;1782423;80;21158;-66
2020/12/29 07:39:17;;;;;;;11.60;8.83;;;;;;;9.14;53.61;99138.02;1781118;80;21188;-67
2020/12/29 07:41:44;;;;;;;11.50;8.55;;;;;;;9.13;53.60;99158.38;1786130;80;21177;-67
2020/12/29 07:44:11;;;;;;;12.70;9.73;;;;;;;9.16;53.60;99154.06;1785200;80;21142;-67
2020/12/29 07:46:39;;;;;;;10.48;8.73;;;;;;;9.16;53.59;99148.77;1778806;80;22099;-66
2020/12/29 07:49:06;;;;;;;11.48;8.45;;;;;;;9.17;53.58;99163.66;1702641;83;21165;-67
2020/12/29 07:51:47;;;;;;;10.10;8.30;;;;;;;9.17;53.56;99158.34;1748015;81;21168;-66
2020/12/29 07:54:16;;;;;;;10.55;8.40;;;;;;;9.19;53.56;99171.44;1737856;82;21151;-66
2020/12/29 07:56:43;;;;;;;12.15;9.15;;;;;;;9.17;53.58;99154.37;1763450;80;21099;-65
2020/12/29 07:59:10;;;;;;;11.20;8.95;;;;;;;9.18;53.56;99136.16;1784502;80;21468;-66
2020/12/29 08:01:51;;;;;;;11.18;8.63;;;;;;;9.18;53.55;99112.31;1778896;80;21673;-65
2020/12/29 08:04:28;;;;;;;9.88;8.58;;;;;;;9.18;53.55;99116.29;1783335;80;21149;-65
2020/12/29 08:06:56;;;;;;;9.83;8.40;;;;;;;9.18;53.55;99108.34;1787740;80;21161;-66
2020/12/29 08:09:24;;;;;;;8.90;7.67;;;;;;;9.17;53.58;99106.67;1779102;78;21156;-66
2020/12/29 08:11:52;;;;;;;11.63;8.65;;;;;;;9.17;53.59;99115.95;1785312;78;22113;-65
2020/12/29 08:14:19;;;;;;;10.70;7.92;;;;;;;9.19;53.57;99102.53;1778986;78;21160;-67
2020/12/29 08:16:47;;;;;;;10.88;8.08;;;;;;;9.19;53.57;99117.11;1785728;78;21601;-65
2020/12/29 08:19:14;;;;;;;11.25;8.10;;;;;;;9.20;53.55;99117.45;1780682;80;21143;-65
2020/12/29 08:21:41;;;;;;;11.15;9.10;;;;;;;9.20;53.56;99118.77;1784135;80;21186;-65
2020/12/29 08:24:08;;;;;;;9.63;7.75;;;;;;;9.21;53.55;99108.00;1724096;81;21215;-65
2020/12/29 08:26:36;;;;;;;9.90;7.83;;;;;;;9.21;53.55;99111.13;1736401;82;21162;-65
2020/12/29 08:29:04;;;;;;;10.70;8.20;;;;;;;9.22;53.55;99120.23;1788825;80;21214;-67
2020/12/29 08:31:31;;;;;;;10.18;8.28;;;;;;;9.22;53.55;99114.94;1785787;78;22083;-65
2020/12/29 08:33:59;;;;;;;10.48;8.20;;;;;;;9.22;53.54;99104.34;1765605;80;21123;-66
2020/12/29 08:36:27;;;;;;;9.93;8.13;;;;;;;9.23;53.54;99093.23;1777483;80;21201;-66
2020/12/29 08:39:33;;;;;;;11.22;8.58;;;;;;;9.23;53.52;99094.08;1782678;80;21169;-67
2020/12/29 08:42:01;;;;;;;10.28;7.62;;;;;;;9.24;53.53;99092.23;1776397;80;21201;-65
2020/12/29 08:44:32;;;;;;;9.55;7.62;;;;;;;9.24;53.53;99093.06;1785786;80;21166;-64
2020/12/29 08:46:59;;;;;;;9.48;7.17;;;;;;;9.24;53.54;99082.45;1783900;80;21609;-65
2020/12/29 08:49:30;;;;;;;9.53;7.30;;;;;;;9.23;53.54;99080.82;1736930;80;21265;-66
2020/12/29 08:51:57;;;;;;;9.95;7.83;;;;;;;9.24;53.53;99073.18;1789471;80;21135;-66
2020/12/29 08:54:24;;;;;;;8.73;7.75;;;;;;;9.24;53.55;99090.91;1789488;80;21603;-67
2020/12/29 08:57:00;;;;;;;8.78;7.50;;;;;;;9.25;53.52;99047.02;1780338;80;21167;-66
2020/12/29 08:59:36;;;;;;;10.23;7.65;;;;;;;9.25;53.52;99050.98;1789578;80;21104;-67
2020/12/29 09:02:04;;;;;;;8.55;7.45;;;;;;;9.25;53.53;99040.39;1776538;80;21319;-67
2020/12/29 09:04:42;;;;;;;8.93;7.65;;;;;;;9.24;53.53;99040.05;1741879;81;21102;-66
2020/12/29 09:07:14;;;;;;;9.23;6.83;;;;;;;9.25;53.54;99031.59;1719956;82;21184;-66
2020/12/29 09:09:58;;;;;;;10.08;7.90;;;;;;;9.25;53.53;99019.19;1778033;80;21162;-65
2020/12/29 09:12:29;;;;;;;9.17;7.13;;;;;;;9.27;53.53;99019.49;1785632;80;21145;-67
2020/12/29 09:14:59;;;;;;;10.50;8.73;;;;;;;9.25;53.53;99008.58;1785087;80;21186;-66
2020/12/29 09:17:32;;;;;;;8.33;7.12;;;;;;;9.27;53.57;99016.84;1781919;78;21158;-66
2020/12/29 09:20:15;;;;;;;8.00;6.92;;;;;;;9.27;53.56;99015.52;1785423;80;21135;-66
2020/12/29 09:23:12;;;;;;;8.85;7.03;;;;;;;9.25;53.55;99015.20;1747909;81;21153;-64
2020/12/29 09:25:44;;;;;;;8.50;6.95;;;;;;;9.25;53.58;99030.27;1739080;82;21150;-66
2020/12/29 09:28:21;;;;;;;9.18;6.65;;;;;;;9.23;53.60;99030.47;1786720;78;21254;-66
2020/12/29 09:31:10;;;;;;;9.50;7.62;;;;;;;9.24;53.63;99014.05;1788638;80;21158;-65
2020/12/29 09:33:39;;;;;;;8.58;6.40;;;;;;;9.25;53.60;99014.36;1789204;80;21167;-65
2020/12/29 09:36:18;;;;;;;9.43;7.47;;;;;;;9.24;53.62;99033.93;1787397;78;21138;-65
2020/12/29 09:38:48;;;;;;;8.25;6.70;;;;;;;9.23;53.67;99011.91;1789249;80;21119;-66
2020/12/29 09:41:15;;;;;;;8.73;6.08;;;;;;;9.24;53.65;99008.25;1784735;80;21336;-65
2020/12/29 09:43:47;;;;;;;8.43;7.15;;;;;;;9.25;53.63;98987.86;1724865;81;21126;-67
2020/12/29 09:46:14;;;;;;;7.62;6.47;;;;;;;9.25;53.63;98977.26;1728351;83;21154;-66
2020/12/29 09:48:41;;;;;;;9.15;6.58;;;;;;;9.27;53.64;98982.39;1785542;80;21168;-65
2020/12/29 09:51:11;;;;;;;8.15;7.12;;;;;;;9.28;53.63;98974.77;1785771;80;21147;-65
2020/12/29 09:53:39;;;;;;;7.80;6.37;;;;;;;9.28;53.64;98986.70;1780785;80;22617;-65
2020/12/29 09:56:06;;;;;;;7.83;5.67;;;;;;;9.28;53.65;98976.09;1789204;80;21151;-66
2020/12/29 09:58:33;;;;;;;7.55;5.55;;;;;;;9.28;53.65;98981.40;1779707;80;21157;-64
2020/12/29 10:01:00;;;;;;;8.43;6.67;;;;;;;9.29;53.63;98958.70;1784340;80;21146;-65
2020/12/29 10:03:31;;;;;;;8.13;6.58;;;;;;;9.30;53.64;98950.23;1775456;80;21711;-66
2020/12/29 10:05:57;;;;;;;8.00;6.25;;;;;;;9.31;53.63;98963.31;1727263;81;21402;-65
2020/12/29 10:08:24;;;;;;;8.28;6.10;;;;;;;9.31;53.60;98935.48;1728620;81;21186;-66
2020/12/29 10:10:51;;;;;;;8.03;5.92;;;;;;;9.32;53.60;98929.16;1709116;81;21167;-66
2020/12/29 10:13:18;;;;;;;7.22;5.62;;;;;;;9.32;53.59;98917.23;1782100;80;21228;-66
2020/12/29 10:15:47;;;;;;;8.33;6.22;;;;;;;9.33;53.58;98928.66;1779588;80;21143;-67
2020/12/29 10:18:15;;;;;;;7.15;5.83;;;;;;;9.33;53.59;98928.66;1770751;80;21159;-65
2020/12/29 10:20:42;;;;;;;8.00;6.33;;;;;;;9.34;53.58;98925.02;1780331;80;21175;-67
2020/12/29 10:23:09;;;;;;;7.00;5.33;;;;;;;9.33;53.58;98921.55;1781687;80;21139;-67
2020/12/29 10:25:37;;;;;;;6.95;5.67;;;;;;;9.34;53.59;98929.81;1769904;80;21134;-67
2020/12/29 10:29:05;;;;;;;7.08;5.90;;;;;;;9.39;53.58;98927.96;1807824;79;27873;-66
2020/12/29 10:31:33;;;;;;;6.80;5.22;;;;;;;9.36;53.58;98911.08;1781898;78;21628;-66
2020/12/29 10:34:02;;;;;;;6.15;5.55;;;;;;;9.37;53.58;98922.02;1781950;79;21616;-66
2020/12/29 10:36:34;;;;;;;6.40;5.17;;;;;;;9.38;53.55;98932.92;1781747;79;21133;-66
2020/12/29 10:39:03;;;;;;;6.22;5.33;;;;;;;9.37;53.56;98926.81;1800279;79;21163;-67
2020/12/29 10:41:31;;;;;;;7.22;5.58;;;;;;;9.38;53.55;98935.06;1785122;79;21169;-66
2020/12/29 10:43:58;;;;;;;7.00;5.75;;;;;;;9.37;53.55;98922.83;1782010;79;21230;-65
2020/12/29 10:46:25;;;;;;;6.58;5.62;;;;;;;9.38;53.56;98917.02;1801294;79;21627;-65
2020/12/29 10:48:52;;;;;;;6.67;5.62;;;;;;;9.38;53.56;98920.48;1781883;79;21168;-67
2020/12/29 10:51:21;;;;;;;7.62;6.22;;;;;;;9.38;53.58;98915.70;1781837;79;21688;-66
2020/12/29 10:53:50;;;;;;;6.92;5.53;;;;;;;9.38;53.58;98918.34;1781843;79;21188;-66
2020/12/29 10:56:17;;;;;;;6.65;5.40;;;;;;;9.38;53.58;98902.44;1781923;79;21577;-64
2020/12/29 10:58:44;;;;;;;7.00;5.17;;;;;;;9.39;53.59;98905.42;1781856;79;21189;-65
2020/12/29 11:01:15;;;;;;;7.22;5.60;;;;;;;9.39;53.58;98920.82;1782379;79;21656;-65
2020/12/29 11:03:43;;;;;;;6.75;5.08;;;;;;;9.40;53.59;98920.31;1782104;79;21172;-66
2020/12/29 11:06:17;;;;;;;8.20;5.37;;;;;;;9.40;53.63;98920.31;1781872;79;21176;-66
2020/12/29 11:08:44;;;;;;;7.55;5.62;;;;;;;9.40;53.60;98907.88;1781808;79;21185;-65
2020/12/29 11:11:14;;;;;;;6.90;5.55;;;;;;;9.40;53.59;98905.73;1781897;79;21180;-67
2020/12/29 11:13:41;;;;;;;7.00;5.35;;;;;;;9.40;53.60;98901.25;1781737;79;21223;-65
2020/12/29 11:16:15;;;;;;;6.47;5.47;;;;;;;9.40;53.62;98893.80;1781867;79;21176;-66
2020/12/29 11:18:43;;;;;;;6.85;5.65;;;;;;;9.40;53.63;98873.92;1785759;79;21195;-67
2020/12/29 11:21:11;;;;;;;6.37;5.12;;;;;;;9.41;53.64;98892.81;1799009;79;21110;-67
2020/12/29 11:23:38;;;;;;;5.90;5.00;;;;;;;9.39;53.65;98886.36;1783731;79;21362;-65
2020/12/29 11:26:05;;;;;;;6.50;5.17;;;;;;;9.40;53.65;98889.31;1790769;79;21124;-65
2020/12/29 11:28:33;;;;;;;6.40;5.33;;;;;;;9.41;53.67;98866.30;1768297;80;21583;-67
2020/12/29 11:31:01;;;;;;;5.83;4.55;;;;;;;9.41;53.67;98869.77;1760935;80;21198;-66
2020/12/29 11:33:29;;;;;;;6.17;5.00;;;;;;;9.41;53.68;98876.39;1777410;80;21121;-65
2020/12/29 11:35:56;;;;;;;6.12;4.97;;;;;;;9.42;53.68;98875.89;1771275;80;21381;-65
2020/12/29 11:38:24;;;;;;;5.92;5.03;;;;;;;9.42;53.68;98858.66;1758265;80;21243;-65
2020/12/29 11:40:51;;;;;;;5.53;4.83;;;;;;;9.42;53.69;98870.08;1757889;80;21143;-66
2020/12/29 11:43:19;;;;;;;6.10;5.15;;;;;;;9.43;53.68;98862.97;1770698;80;21655;-67
2020/12/29 11:45:46;;;;;;;6.78;5.00;;;;;;;9.42;53.69;98856.82;1757843;80;21195;-66